Kezdőlap
METAR-TAF:

METAR-TAF

Repülőterek :

Savonlinna, Finnország

földrajzi szélesség: 61-57N, földrajzi hosszúság: 028-57E, magasság: 95 m

Jelenlegi meteorológiai megfigyelések

A jelentés 15 perccel ezelõtt készült, 23:50 UTC
Dél-délnyugati szél 2 kt
Hőmérséklet -2°C
Páratartalom 100%
Légköri nyomás 1005 hPa
Látótávolság: 2500 m

METAR: EFSA 242350Z AUTO 20002KT 9999 2500 NSC M02/M02 Q1005

Idő: 03:05 (00:05 UTC)


TAF: hiányzik

Meteorológiai megfigyelések és előrejelzések több, mint 4000 repülőtéren (METAR és TAF jelentéseket).

A térképen piros és sárga pontok jelzik az elérhető meteorológiai állomásokat.

Mozgassa az egeret a pont fölött, hogy megjelenjen az állomás neve.

Azután kattintson az időjárási megfigyelések és előrejelzések megtekintéséhez.

A térkép megváltoztatása: kattintson a fekete keresztel jelölt zöld gombra ráközelítéshez, a vonallal jelölt zöld gombra távolításhoz, vagy a zöld nyilakra a szomszédos térképek eléréséhez.


METAR-TAF: